sensor_id;sensor_type;location;lat;lon;timestamp;P1;durP1;ratioP1;P2;durP2;ratioP2
19251;SDS011;9760;50.944;5.304;2023-04-05T00:00:58;17.60;;;6.77;;
19251;SDS011;9760;50.944;5.304;2023-04-05T00:03:24;13.87;;;6.93;;
19251;SDS011;9760;50.944;5.304;2023-04-05T00:05:50;15.93;;;7.10;;
19251;SDS011;9760;50.944;5.304;2023-04-05T00:08:18;18.57;;;6.50;;
19251;SDS011;9760;50.944;5.304;2023-04-05T00:10:51;16.03;;;6.57;;
19251;SDS011;9760;50.944;5.304;2023-04-05T00:13:17;15.53;;;6.93;;
19251;SDS011;9760;50.944;5.304;2023-04-05T00:15:43;16.13;;;6.37;;
19251;SDS011;9760;50.944;5.304;2023-04-05T00:18:09;15.73;;;6.23;;
19251;SDS011;9760;50.944;5.304;2023-04-05T00:20:45;12.13;;;5.83;;
19251;SDS011;9760;50.944;5.304;2023-04-05T00:23:18;20.53;;;7.03;;
19251;SDS011;9760;50.944;5.304;2023-04-05T00:25:45;20.97;;;8.60;;
19251;SDS011;9760;50.944;5.304;2023-04-05T00:28:11;23.43;;;8.73;;
19251;SDS011;9760;50.944;5.304;2023-04-05T00:30:37;24.53;;;9.80;;
19251;SDS011;9760;50.944;5.304;2023-04-05T00:33:04;24.10;;;9.80;;
19251;SDS011;9760;50.944;5.304;2023-04-05T00:35:30;26.10;;;10.00;;
19251;SDS011;9760;50.944;5.304;2023-04-05T00:37:55;21.73;;;9.07;;
19251;SDS011;9760;50.944;5.304;2023-04-05T00:40:22;15.20;;;7.60;;
19251;SDS011;9760;50.944;5.304;2023-04-05T00:42:48;15.87;;;7.83;;
19251;SDS011;9760;50.944;5.304;2023-04-05T00:45:13;19.43;;;7.93;;
19251;SDS011;9760;50.944;5.304;2023-04-05T00:47:40;18.53;;;8.33;;
19251;SDS011;9760;50.944;5.304;2023-04-05T00:50:06;21.23;;;9.80;;
19251;SDS011;9760;50.944;5.304;2023-04-05T00:52:33;19.40;;;8.97;;
19251;SDS011;9760;50.944;5.304;2023-04-05T00:55:01;21.40;;;8.73;;
19251;SDS011;9760;50.944;5.304;2023-04-05T00:57:30;23.77;;;9.43;;
19251;SDS011;9760;50.944;5.304;2023-04-05T00:59:59;22.67;;;10.00;;
19251;SDS011;9760;50.944;5.304;2023-04-05T01:02:32;21.87;;;10.23;;
19251;SDS011;9760;50.944;5.304;2023-04-05T01:07:53;27.93;;;11.00;;
19251;SDS011;9760;50.944;5.304;2023-04-05T01:10:30;26.23;;;11.17;;
19251;SDS011;9760;50.944;5.304;2023-04-05T01:13:00;25.27;;;11.10;;
19251;SDS011;9760;50.944;5.304;2023-04-05T01:15:26;22.83;;;10.80;;
19251;SDS011;9760;50.944;5.304;2023-04-05T01:17:51;22.73;;;11.10;;
19251;SDS011;9760;50.944;5.304;2023-04-05T01:20:18;21.17;;;10.63;;
19251;SDS011;9760;50.944;5.304;2023-04-05T01:31:49;22.20;;;9.30;;
19251;SDS011;9760;50.944;5.304;2023-04-05T01:34:26;23.40;;;8.57;;
19251;SDS011;9760;50.944;5.304;2023-04-05T01:37:02;21.57;;;8.33;;
19251;SDS011;9760;50.944;5.304;2023-04-05T01:39:31;18.77;;;8.00;;
19251;SDS011;9760;50.944;5.304;2023-04-05T01:41:59;21.13;;;8.23;;
19251;SDS011;9760;50.944;5.304;2023-04-05T01:44:26;21.20;;;8.00;;
19251;SDS011;9760;50.944;5.304;2023-04-05T01:46:55;20.10;;;8.63;;
19251;SDS011;9760;50.944;5.304;2023-04-05T01:49:21;20.73;;;8.53;;
19251;SDS011;9760;50.944;5.304;2023-04-05T01:51:47;15.53;;;6.90;;
19251;SDS011;9760;50.944;5.304;2023-04-05T01:54:13;15.23;;;7.30;;
19251;SDS011;9760;50.944;5.304;2023-04-05T01:56:38;19.27;;;7.50;;
19251;SDS011;9760;50.944;5.304;2023-04-05T01:59:05;18.03;;;7.83;;
19251;SDS011;9760;50.944;5.304;2023-04-05T02:01:30;19.17;;;7.43;;
19251;SDS011;9760;50.944;5.304;2023-04-05T02:03:56;24.60;;;8.10;;
19251;SDS011;9760;50.944;5.304;2023-04-05T02:06:21;16.97;;;7.90;;
19251;SDS011;9760;50.944;5.304;2023-04-05T02:08:47;17.87;;;6.87;;
19251;SDS011;9760;50.944;5.304;2023-04-05T02:11:13;20.23;;;8.50;;
19251;SDS011;9760;50.944;5.304;2023-04-05T02:13:38;19.60;;;8.03;;
19251;SDS011;9760;50.944;5.304;2023-04-05T02:16:04;18.70;;;7.37;;
19251;SDS011;9760;50.944;5.304;2023-04-05T02:18:30;15.30;;;8.13;;
19251;SDS011;9760;50.944;5.304;2023-04-05T02:21:02;19.03;;;8.43;;
19251;SDS011;9760;50.944;5.304;2023-04-05T02:23:30;19.80;;;8.70;;
19251;SDS011;9760;50.944;5.304;2023-04-05T02:25:56;18.50;;;9.07;;
19251;SDS011;9760;50.944;5.304;2023-04-05T02:28:23;18.57;;;8.27;;
19251;SDS011;9760;50.944;5.304;2023-04-05T02:30:48;18.77;;;8.57;;
19251;SDS011;9760;50.944;5.304;2023-04-05T02:33:14;22.70;;;8.30;;
19251;SDS011;9760;50.944;5.304;2023-04-05T02:35:40;17.60;;;8.37;;
19251;SDS011;9760;50.944;5.304;2023-04-05T02:38:06;30.87;;;9.67;;
19251;SDS011;9760;50.944;5.304;2023-04-05T02:40:31;21.20;;;8.73;;
19251;SDS011;9760;50.944;5.304;2023-04-05T02:42:58;23.67;;;10.03;;
19251;SDS011;9760;50.944;5.304;2023-04-05T02:45:23;20.37;;;9.03;;
19251;SDS011;9760;50.944;5.304;2023-04-05T02:47:49;22.50;;;8.87;;
19251;SDS011;9760;50.944;5.304;2023-04-05T02:50:14;21.37;;;9.17;;
19251;SDS011;9760;50.944;5.304;2023-04-05T02:52:44;22.10;;;10.13;;
19251;SDS011;9760;50.944;5.304;2023-04-05T02:55:11;21.10;;;9.90;;
19251;SDS011;9760;50.944;5.304;2023-04-05T02:57:36;30.57;;;9.83;;
19251;SDS011;9760;50.944;5.304;2023-04-05T03:00:02;20.50;;;8.77;;
19251;SDS011;9760;50.944;5.304;2023-04-05T03:02:29;20.57;;;8.10;;
19251;SDS011;9760;50.944;5.304;2023-04-05T03:04:55;17.20;;;8.13;;
19251;SDS011;9760;50.944;5.304;2023-04-05T03:07:21;21.07;;;7.90;;
19251;SDS011;9760;50.944;5.304;2023-04-05T03:09:49;19.00;;;8.30;;
19251;SDS011;9760;50.944;5.304;2023-04-05T03:12:15;15.57;;;8.43;;
19251;SDS011;9760;50.944;5.304;2023-04-05T03:14:40;14.60;;;7.20;;
19251;SDS011;9760;50.944;5.304;2023-04-05T03:17:06;20.33;;;8.43;;
19251;SDS011;9760;50.944;5.304;2023-04-05T03:19:32;18.47;;;7.87;;
19251;SDS011;9760;50.944;5.304;2023-04-05T03:21:59;17.37;;;8.43;;
19251;SDS011;9760;50.944;5.304;2023-04-05T03:24:25;18.13;;;7.60;;
19251;SDS011;9760;50.944;5.304;2023-04-05T03:26:51;14.90;;;7.87;;
19251;SDS011;9760;50.944;5.304;2023-04-05T03:29:17;16.57;;;7.70;;
19251;SDS011;9760;50.944;5.304;2023-04-05T03:31:43;19.17;;;8.50;;
19251;SDS011;9760;50.944;5.304;2023-04-05T03:34:09;19.93;;;9.23;;
19251;SDS011;9760;50.944;5.304;2023-04-05T03:36:34;19.17;;;8.57;;
19251;SDS011;9760;50.944;5.304;2023-04-05T03:39:09;21.70;;;10.27;;
19251;SDS011;9760;50.944;5.304;2023-04-05T03:41:36;23.00;;;10.30;;
19251;SDS011;9760;50.944;5.304;2023-04-05T03:44:02;22.07;;;10.97;;
19251;SDS011;9760;50.944;5.304;2023-04-05T03:46:28;21.73;;;9.37;;
19251;SDS011;9760;50.944;5.304;2023-04-05T03:48:55;24.87;;;9.93;;
19251;SDS011;9760;50.944;5.304;2023-04-05T03:51:21;24.50;;;9.47;;
19251;SDS011;9760;50.944;5.304;2023-04-05T03:53:47;23.63;;;9.60;;
19251;SDS011;9760;50.944;5.304;2023-04-05T03:56:13;47.00;;;11.20;;
19251;SDS011;9760;50.944;5.304;2023-04-05T03:58:39;28.57;;;9.60;;
19251;SDS011;9760;50.944;5.304;2023-04-05T04:01:05;24.33;;;9.27;;
19251;SDS011;9760;50.944;5.304;2023-04-05T04:03:31;27.40;;;9.63;;
19251;SDS011;9760;50.944;5.304;2023-04-05T04:05:56;23.57;;;10.37;;
19251;SDS011;9760;50.944;5.304;2023-04-05T04:08:22;27.37;;;10.67;;
19251;SDS011;9760;50.944;5.304;2023-04-05T04:10:48;18.47;;;9.87;;
19251;SDS011;9760;50.944;5.304;2023-04-05T04:13:14;25.37;;;10.30;;
19251;SDS011;9760;50.944;5.304;2023-04-05T04:15:40;26.80;;;10.97;;
19251;SDS011;9760;50.944;5.304;2023-04-05T04:18:06;23.67;;;10.60;;
19251;SDS011;9760;50.944;5.304;2023-04-05T04:20:31;23.57;;;10.57;;
19251;SDS011;9760;50.944;5.304;2023-04-05T04:22:57;29.63;;;10.77;;
19251;SDS011;9760;50.944;5.304;2023-04-05T04:25:23;26.07;;;10.47;;
19251;SDS011;9760;50.944;5.304;2023-04-05T04:27:50;26.03;;;10.83;;
19251;SDS011;9760;50.944;5.304;2023-04-05T04:30:16;24.97;;;10.40;;
19251;SDS011;9760;50.944;5.304;2023-04-05T04:32:47;22.10;;;10.07;;
19251;SDS011;9760;50.944;5.304;2023-04-05T04:35:17;25.70;;;11.10;;
19251;SDS011;9760;50.944;5.304;2023-04-05T04:37:50;28.30;;;10.80;;
19251;SDS011;9760;50.944;5.304;2023-04-05T04:40:19;19.67;;;9.53;;
19251;SDS011;9760;50.944;5.304;2023-04-05T04:42:45;23.80;;;10.97;;
19251;SDS011;9760;50.944;5.304;2023-04-05T04:45:12;20.73;;;10.13;;
19251;SDS011;9760;50.944;5.304;2023-04-05T04:47:41;19.57;;;9.13;;
19251;SDS011;9760;50.944;5.304;2023-04-05T04:50:07;24.23;;;10.47;;
19251;SDS011;9760;50.944;5.304;2023-04-05T04:52:34;22.87;;;9.80;;
19251;SDS011;9760;50.944;5.304;2023-04-05T04:55:00;20.90;;;9.63;;
19251;SDS011;9760;50.944;5.304;2023-04-05T04:57:26;28.93;;;10.47;;
19251;SDS011;9760;50.944;5.304;2023-04-05T04:59:52;23.00;;;10.60;;
19251;SDS011;9760;50.944;5.304;2023-04-05T05:02:22;26.67;;;10.23;;
19251;SDS011;9760;50.944;5.304;2023-04-05T05:04:51;27.77;;;11.70;;
19251;SDS011;9760;50.944;5.304;2023-04-05T05:07:17;23.23;;;10.57;;
19251;SDS011;9760;50.944;5.304;2023-04-05T05:09:44;21.40;;;10.40;;
19251;SDS011;9760;50.944;5.304;2023-04-05T05:12:10;22.43;;;10.97;;
19251;SDS011;9760;50.944;5.304;2023-04-05T05:14:35;26.97;;;11.07;;
19251;SDS011;9760;50.944;5.304;2023-04-05T05:17:01;23.37;;;10.97;;
19251;SDS011;9760;50.944;5.304;2023-04-05T05:19:29;33.40;;;11.67;;
19251;SDS011;9760;50.944;5.304;2023-04-05T05:21:55;25.57;;;10.33;;
19251;SDS011;9760;50.944;5.304;2023-04-05T05:24:21;22.00;;;9.70;;
19251;SDS011;9760;50.944;5.304;2023-04-05T05:26:47;27.37;;;9.53;;
19251;SDS011;9760;50.944;5.304;2023-04-05T05:29:12;20.43;;;9.93;;
19251;SDS011;9760;50.944;5.304;2023-04-05T05:31:38;29.43;;;10.67;;
19251;SDS011;9760;50.944;5.304;2023-04-05T05:34:04;28.70;;;10.13;;
19251;SDS011;9760;50.944;5.304;2023-04-05T05:36:30;19.80;;;9.30;;
19251;SDS011;9760;50.944;5.304;2023-04-05T05:38:56;27.73;;;9.97;;
19251;SDS011;9760;50.944;5.304;2023-04-05T05:41:22;26.23;;;10.50;;
19251;SDS011;9760;50.944;5.304;2023-04-05T05:43:48;25.83;;;10.43;;
19251;SDS011;9760;50.944;5.304;2023-04-05T05:46:13;25.10;;;9.50;;
19251;SDS011;9760;50.944;5.304;2023-04-05T05:48:39;26.87;;;9.93;;
19251;SDS011;9760;50.944;5.304;2023-04-05T05:51:05;23.53;;;9.30;;
19251;SDS011;9760;50.944;5.304;2023-04-05T05:53:34;20.33;;;9.40;;
19251;SDS011;9760;50.944;5.304;2023-04-05T05:56:01;32.77;;;9.70;;
19251;SDS011;9760;50.944;5.304;2023-04-05T05:58:26;26.73;;;9.40;;
19251;SDS011;9760;50.944;5.304;2023-04-05T06:00:52;30.17;;;10.47;;
19251;SDS011;9760;50.944;5.304;2023-04-05T06:03:23;21.03;;;9.13;;
19251;SDS011;9760;50.944;5.304;2023-04-05T06:05:58;22.50;;;8.60;;
19251;SDS011;9760;50.944;5.304;2023-04-05T06:08:27;22.03;;;9.67;;
19251;SDS011;9760;50.944;5.304;2023-04-05T06:10:52;22.37;;;9.23;;
19251;SDS011;9760;50.944;5.304;2023-04-05T06:13:18;29.20;;;9.77;;
19251;SDS011;9760;50.944;5.304;2023-04-05T06:15:46;25.93;;;10.40;;
19251;SDS011;9760;50.944;5.304;2023-04-05T06:18:12;26.93;;;10.77;;
19251;SDS011;9760;50.944;5.304;2023-04-05T06:20:38;37.97;;;11.30;;
19251;SDS011;9760;50.944;5.304;2023-04-05T06:23:08;35.27;;;11.63;;
19251;SDS011;9760;50.944;5.304;2023-04-05T06:25:35;43.60;;;15.77;;
19251;SDS011;9760;50.944;5.304;2023-04-05T06:28:04;27.57;;;11.57;;
19251;SDS011;9760;50.944;5.304;2023-04-05T06:30:31;27.43;;;10.67;;
19251;SDS011;9760;50.944;5.304;2023-04-05T06:32:58;28.30;;;10.60;;
19251;SDS011;9760;50.944;5.304;2023-04-05T06:35:24;21.13;;;9.80;;
19251;SDS011;9760;50.944;5.304;2023-04-05T06:37:51;27.13;;;10.97;;
19251;SDS011;9760;50.944;5.304;2023-04-05T06:40:17;21.80;;;10.43;;
19251;SDS011;9760;50.944;5.304;2023-04-05T06:42:43;28.67;;;11.23;;
19251;SDS011;9760;50.944;5.304;2023-04-05T06:45:08;25.80;;;10.70;;
19251;SDS011;9760;50.944;5.304;2023-04-05T06:47:38;28.83;;;11.57;;
19251;SDS011;9760;50.944;5.304;2023-04-05T06:50:05;23.77;;;10.00;;
19251;SDS011;9760;50.944;5.304;2023-04-05T06:52:32;30.40;;;10.53;;
19251;SDS011;9760;50.944;5.304;2023-04-05T06:54:58;26.33;;;10.63;;
19251;SDS011;9760;50.944;5.304;2023-04-05T06:57:24;24.47;;;10.53;;
19251;SDS011;9760;50.944;5.304;2023-04-05T06:59:51;30.80;;;11.57;;
19251;SDS011;9760;50.944;5.304;2023-04-05T07:02:17;27.63;;;11.03;;
19251;SDS011;9760;50.944;5.304;2023-04-05T07:04:43;27.37;;;11.97;;
19251;SDS011;9760;50.944;5.304;2023-04-05T07:07:10;26.53;;;10.90;;
19251;SDS011;9760;50.944;5.304;2023-04-05T07:09:36;27.70;;;10.10;;
19251;SDS011;9760;50.944;5.304;2023-04-05T07:12:03;24.80;;;10.93;;
19251;SDS011;9760;50.944;5.304;2023-04-05T07:14:30;35.87;;;11.50;;
19251;SDS011;9760;50.944;5.304;2023-04-05T07:16:57;25.17;;;10.67;;
19251;SDS011;9760;50.944;5.304;2023-04-05T07:19:22;22.27;;;10.07;;
19251;SDS011;9760;50.944;5.304;2023-04-05T07:21:48;27.97;;;11.17;;
19251;SDS011;9760;50.944;5.304;2023-04-05T07:24:14;20.20;;;10.00;;
19251;SDS011;9760;50.944;5.304;2023-04-05T07:26:40;23.07;;;10.40;;
19251;SDS011;9760;50.944;5.304;2023-04-05T07:29:06;28.13;;;10.50;;
19251;SDS011;9760;50.944;5.304;2023-04-05T07:31:33;21.57;;;10.63;;
19251;SDS011;9760;50.944;5.304;2023-04-05T07:33:59;25.27;;;10.47;;
19251;SDS011;9760;50.944;5.304;2023-04-05T07:36:25;28.27;;;12.47;;
19251;SDS011;9760;50.944;5.304;2023-04-05T07:38:55;29.63;;;11.83;;
19251;SDS011;9760;50.944;5.304;2023-04-05T07:41:23;22.50;;;11.97;;
19251;SDS011;9760;50.944;5.304;2023-04-05T07:43:49;31.17;;;11.30;;
19251;SDS011;9760;50.944;5.304;2023-04-05T07:46:15;27.37;;;10.80;;
19251;SDS011;9760;50.944;5.304;2023-04-05T07:48:41;22.30;;;9.40;;
19251;SDS011;9760;50.944;5.304;2023-04-05T07:51:07;23.10;;;9.67;;
19251;SDS011;9760;50.944;5.304;2023-04-05T07:53:34;27.13;;;9.13;;
19251;SDS011;9760;50.944;5.304;2023-04-05T07:56:09;26.50;;;9.27;;
19251;SDS011;9760;50.944;5.304;2023-04-05T07:58:37;27.67;;;9.47;;
19251;SDS011;9760;50.944;5.304;2023-04-05T08:01:06;21.40;;;8.30;;
19251;SDS011;9760;50.944;5.304;2023-04-05T08:03:33;23.93;;;8.70;;
19251;SDS011;9760;50.944;5.304;2023-04-05T08:06:12;16.47;;;8.33;;
19251;SDS011;9760;50.944;5.304;2023-04-05T08:08:39;16.90;;;7.50;;
19251;SDS011;9760;50.944;5.304;2023-04-05T08:11:05;17.60;;;8.63;;
19251;SDS011;9760;50.944;5.304;2023-04-05T08:13:31;16.23;;;7.63;;
19251;SDS011;9760;50.944;5.304;2023-04-05T08:15:58;16.77;;;7.43;;
19251;SDS011;9760;50.944;5.304;2023-04-05T08:18:27;27.17;;;8.27;;
19251;SDS011;9760;50.944;5.304;2023-04-05T08:20:53;17.87;;;8.07;;
19251;SDS011;9760;50.944;5.304;2023-04-05T08:23:19;20.77;;;7.60;;
19251;SDS011;9760;50.944;5.304;2023-04-05T08:25:45;19.80;;;7.70;;
19251;SDS011;9760;50.944;5.304;2023-04-05T08:28:11;19.90;;;7.00;;
19251;SDS011;9760;50.944;5.304;2023-04-05T08:30:37;15.40;;;6.93;;
19251;SDS011;9760;50.944;5.304;2023-04-05T08:33:03;16.00;;;6.73;;
19251;SDS011;9760;50.944;5.304;2023-04-05T08:35:29;17.67;;;6.67;;
19251;SDS011;9760;50.944;5.304;2023-04-05T08:37:55;15.13;;;7.00;;
19251;SDS011;9760;50.944;5.304;2023-04-05T08:40:22;17.57;;;7.57;;
19251;SDS011;9760;50.944;5.304;2023-04-05T08:43:00;19.00;;;6.67;;
19251;SDS011;9760;50.944;5.304;2023-04-05T08:45:32;13.57;;;6.63;;
19251;SDS011;9760;50.944;5.304;2023-04-05T08:48:00;15.13;;;6.23;;
19251;SDS011;9760;50.944;5.304;2023-04-05T08:50:25;13.50;;;6.43;;
19251;SDS011;9760;50.944;5.304;2023-04-05T08:52:51;28.20;;;7.43;;
19251;SDS011;9760;50.944;5.304;2023-04-05T08:55:17;10.23;;;5.87;;
19251;SDS011;9760;50.944;5.304;2023-04-05T08:57:43;20.73;;;6.77;;
19251;SDS011;9760;50.944;5.304;2023-04-05T09:00:15;19.67;;;6.43;;
19251;SDS011;9760;50.944;5.304;2023-04-05T09:02:42;13.90;;;6.67;;
19251;SDS011;9760;50.944;5.304;2023-04-05T09:05:11;17.73;;;6.80;;
19251;SDS011;9760;50.944;5.304;2023-04-05T09:07:37;19.70;;;7.47;;
19251;SDS011;9760;50.944;5.304;2023-04-05T09:10:06;13.03;;;6.40;;
19251;SDS011;9760;50.944;5.304;2023-04-05T09:12:33;12.03;;;6.07;;
19251;SDS011;9760;50.944;5.304;2023-04-05T09:15:00;13.17;;;5.30;;
19251;SDS011;9760;50.944;5.304;2023-04-05T09:17:26;16.93;;;5.47;;
19251;SDS011;9760;50.944;5.304;2023-04-05T09:19:53;14.63;;;5.73;;
19251;SDS011;9760;50.944;5.304;2023-04-05T09:22:18;11.30;;;5.33;;
19251;SDS011;9760;50.944;5.304;2023-04-05T09:24:46;13.53;;;5.90;;
19251;SDS011;9760;50.944;5.304;2023-04-05T09:27:19;17.60;;;7.03;;
19251;SDS011;9760;50.944;5.304;2023-04-05T09:29:45;17.10;;;7.50;;
19251;SDS011;9760;50.944;5.304;2023-04-05T09:32:14;12.13;;;6.07;;
19251;SDS011;9760;50.944;5.304;2023-04-05T09:34:42;9.73;;;4.87;;
19251;SDS011;9760;50.944;5.304;2023-04-05T09:39:38;9.63;;;4.73;;
19251;SDS011;9760;50.944;5.304;2023-04-05T09:47:31;13.23;;;5.17;;
19251;SDS011;9760;50.944;5.304;2023-04-05T09:50:01;12.90;;;4.93;;
19251;SDS011;9760;50.944;5.304;2023-04-05T09:52:31;11.47;;;5.40;;
19251;SDS011;9760;50.944;5.304;2023-04-05T09:55:01;11.53;;;4.40;;
19251;SDS011;9760;50.944;5.304;2023-04-05T09:57:32;15.33;;;4.70;;
19251;SDS011;9760;50.944;5.304;2023-04-05T10:00:00;11.33;;;5.10;;
19251;SDS011;9760;50.944;5.304;2023-04-05T10:02:34;10.10;;;4.93;;
19251;SDS011;9760;50.944;5.304;2023-04-05T10:05:06;19.03;;;5.10;;
19251;SDS011;9760;50.944;5.304;2023-04-05T10:07:36;13.23;;;5.37;;
19251;SDS011;9760;50.944;5.304;2023-04-05T10:10:02;7.63;;;4.70;;
19251;SDS011;9760;50.944;5.304;2023-04-05T10:12:28;12.23;;;5.27;;
19251;SDS011;9760;50.944;5.304;2023-04-05T10:14:56;16.43;;;4.83;;
19251;SDS011;9760;50.944;5.304;2023-04-05T10:19:56;13.07;;;5.07;;
19251;SDS011;9760;50.944;5.304;2023-04-05T10:22:28;14.23;;;4.83;;
19251;SDS011;9760;50.944;5.304;2023-04-05T10:25:04;14.87;;;5.83;;
19251;SDS011;9760;50.944;5.304;2023-04-05T10:27:41;13.60;;;4.70;;
19251;SDS011;9760;50.944;5.304;2023-04-05T10:30:12;11.13;;;4.83;;
19251;SDS011;9760;50.944;5.304;2023-04-05T10:35:25;11.10;;;4.50;;
19251;SDS011;9760;50.944;5.304;2023-04-05T10:38:15;10.43;;;4.27;;
19251;SDS011;9760;50.944;5.304;2023-04-05T10:40:47;8.57;;;4.27;;
19251;SDS011;9760;50.944;5.304;2023-04-05T10:43:19;8.50;;;4.70;;
19251;SDS011;9760;50.944;5.304;2023-04-05T10:45:47;12.83;;;4.50;;
19251;SDS011;9760;50.944;5.304;2023-04-05T10:51:25;10.13;;;4.80;;
19251;SDS011;9760;50.944;5.304;2023-04-05T10:53:53;10.87;;;4.83;;
19251;SDS011;9760;50.944;5.304;2023-04-05T10:56:20;10.70;;;4.67;;
19251;SDS011;9760;50.944;5.304;2023-04-05T10:58:46;10.43;;;5.30;;
19251;SDS011;9760;50.944;5.304;2023-04-05T11:01:14;12.63;;;4.70;;
19251;SDS011;9760;50.944;5.304;2023-04-05T11:08:52;12.50;;;5.03;;
19251;SDS011;9760;50.944;5.304;2023-04-05T11:11:21;11.10;;;5.00;;
19251;SDS011;9760;50.944;5.304;2023-04-05T11:13:48;10.50;;;5.18;;
19251;SDS011;9760;50.944;5.304;2023-04-05T11:16:19;7.83;;;4.90;;
19251;SDS011;9760;50.944;5.304;2023-04-05T11:18:46;8.70;;;4.77;;
19251;SDS011;9760;50.944;5.304;2023-04-05T11:21:23;11.93;;;4.83;;
19251;SDS011;9760;50.944;5.304;2023-04-05T11:26:33;12.47;;;4.80;;
19251;SDS011;9760;50.944;5.304;2023-04-05T11:29:05;8.57;;;4.60;;
19251;SDS011;9760;50.944;5.304;2023-04-05T11:31:31;10.77;;;5.00;;
19251;SDS011;9760;50.944;5.304;2023-04-05T11:34:03;10.80;;;4.73;;
19251;SDS011;9760;50.944;5.304;2023-04-05T11:41:46;9.63;;;5.33;;
19251;SDS011;9760;50.944;5.304;2023-04-05T11:44:15;8.47;;;5.00;;
19251;SDS011;9760;50.944;5.304;2023-04-05T11:46:41;10.57;;;4.90;;
19251;SDS011;9760;50.944;5.304;2023-04-05T11:49:07;13.65;;;5.68;;
19251;SDS011;9760;50.944;5.304;2023-04-05T11:51:33;8.93;;;4.90;;
19251;SDS011;9760;50.944;5.304;2023-04-05T11:53:59;11.20;;;5.20;;
19251;SDS011;9760;50.944;5.304;2023-04-05T11:56:25;9.43;;;4.57;;
19251;SDS011;9760;50.944;5.304;2023-04-05T11:58:50;8.60;;;4.73;;
19251;SDS011;9760;50.944;5.304;2023-04-05T12:01:16;12.97;;;4.80;;
19251;SDS011;9760;50.944;5.304;2023-04-05T12:03:42;10.90;;;5.27;;
19251;SDS011;9760;50.944;5.304;2023-04-05T12:06:08;13.83;;;5.07;;
19251;SDS011;9760;50.944;5.304;2023-04-05T12:11:09;14.13;;;5.60;;
19251;SDS011;9760;50.944;5.304;2023-04-05T12:13:36;11.20;;;4.97;;
19251;SDS011;9760;50.944;5.304;2023-04-05T12:16:03;13.30;;;5.30;;
19251;SDS011;9760;50.944;5.304;2023-04-05T12:18:31;10.63;;;5.17;;
19251;SDS011;9760;50.944;5.304;2023-04-05T12:20:58;12.83;;;5.60;;
19251;SDS011;9760;50.944;5.304;2023-04-05T12:23:28;9.93;;;5.03;;
19251;SDS011;9760;50.944;5.304;2023-04-05T12:25:55;12.93;;;5.33;;
19251;SDS011;9760;50.944;5.304;2023-04-05T12:28:22;11.87;;;5.23;;
19251;SDS011;9760;50.944;5.304;2023-04-05T12:30:55;11.13;;;5.33;;
19251;SDS011;9760;50.944;5.304;2023-04-05T12:36:03;10.73;;;5.10;;
19251;SDS011;9760;50.944;5.304;2023-04-05T12:38:29;12.07;;;5.20;;
19251;SDS011;9760;50.944;5.304;2023-04-05T12:41:01;10.80;;;5.37;;
19251;SDS011;9760;50.944;5.304;2023-04-05T12:43:38;10.70;;;5.27;;
19251;SDS011;9760;50.944;5.304;2023-04-05T12:46:05;8.13;;;4.80;;
19251;SDS011;9760;50.944;5.304;2023-04-05T12:48:35;9.83;;;5.17;;
19251;SDS011;9760;50.944;5.304;2023-04-05T12:51:02;12.60;;;4.90;;
19251;SDS011;9760;50.944;5.304;2023-04-05T12:53:29;9.73;;;5.20;;
19251;SDS011;9760;50.944;5.304;2023-04-05T12:55:55;12.90;;;5.23;;
19251;SDS011;9760;50.944;5.304;2023-04-05T12:58:35;10.73;;;5.30;;
19251;SDS011;9760;50.944;5.304;2023-04-05T13:01:02;12.07;;;5.27;;
19251;SDS011;9760;50.944;5.304;2023-04-05T13:03:28;11.67;;;5.80;;
19251;SDS011;9760;50.944;5.304;2023-04-05T13:05:54;11.83;;;6.13;;
19251;SDS011;9760;50.944;5.304;2023-04-05T13:08:19;17.23;;;6.17;;
19251;SDS011;9760;50.944;5.304;2023-04-05T13:10:46;10.23;;;5.43;;
19251;SDS011;9760;50.944;5.304;2023-04-05T13:13:12;11.10;;;5.10;;
19251;SDS011;9760;50.944;5.304;2023-04-05T13:15:38;17.67;;;5.50;;
19251;SDS011;9760;50.944;5.304;2023-04-05T13:18:04;13.00;;;6.80;;
19251;SDS011;9760;50.944;5.304;2023-04-05T13:20:30;11.93;;;5.93;;
19251;SDS011;9760;50.944;5.304;2023-04-05T13:22:56;14.63;;;5.77;;
19251;SDS011;9760;50.944;5.304;2023-04-05T13:25:22;18.23;;;5.90;;
19251;SDS011;9760;50.944;5.304;2023-04-05T13:27:48;13.20;;;5.67;;
19251;SDS011;9760;50.944;5.304;2023-04-05T13:30:14;11.57;;;6.27;;
19251;SDS011;9760;50.944;5.304;2023-04-05T13:32:40;13.83;;;6.13;;
19251;SDS011;9760;50.944;5.304;2023-04-05T13:35:06;15.80;;;6.87;;
19251;SDS011;9760;50.944;5.304;2023-04-05T13:37:32;10.03;;;5.60;;
19251;SDS011;9760;50.944;5.304;2023-04-05T13:39:58;11.50;;;6.10;;
19251;SDS011;9760;50.944;5.304;2023-04-05T13:42:24;14.30;;;6.57;;
19251;SDS011;9760;50.944;5.304;2023-04-05T13:44:49;12.00;;;5.93;;
19251;SDS011;9760;50.944;5.304;2023-04-05T13:47:15;16.30;;;6.60;;
19251;SDS011;9760;50.944;5.304;2023-04-05T13:49:41;14.97;;;6.27;;
19251;SDS011;9760;50.944;5.304;2023-04-05T13:52:07;20.47;;;6.83;;
19251;SDS011;9760;50.944;5.304;2023-04-05T13:54:33;19.33;;;6.30;;
19251;SDS011;9760;50.944;5.304;2023-04-05T13:56:59;14.83;;;6.53;;
19251;SDS011;9760;50.944;5.304;2023-04-05T13:59:24;11.23;;;6.30;;
19251;SDS011;9760;50.944;5.304;2023-04-05T14:01:50;17.97;;;6.70;;
19251;SDS011;9760;50.944;5.304;2023-04-05T14:04:17;16.13;;;6.20;;
19251;SDS011;9760;50.944;5.304;2023-04-05T14:06:43;12.50;;;6.57;;
19251;SDS011;9760;50.944;5.304;2023-04-05T14:09:09;15.77;;;6.37;;
19251;SDS011;9760;50.944;5.304;2023-04-05T14:11:35;11.20;;;6.40;;
19251;SDS011;9760;50.944;5.304;2023-04-05T14:14:01;10.87;;;5.87;;
19251;SDS011;9760;50.944;5.304;2023-04-05T14:16:27;14.47;;;6.70;;
19251;SDS011;9760;50.944;5.304;2023-04-05T14:18:53;13.20;;;6.20;;
19251;SDS011;9760;50.944;5.304;2023-04-05T14:21:18;13.30;;;6.50;;
19251;SDS011;9760;50.944;5.304;2023-04-05T14:23:45;15.80;;;6.70;;
19251;SDS011;9760;50.944;5.304;2023-04-05T14:26:10;12.30;;;6.03;;
19251;SDS011;9760;50.944;5.304;2023-04-05T14:28:36;13.03;;;6.37;;
19251;SDS011;9760;50.944;5.304;2023-04-05T14:31:02;17.23;;;6.80;;
19251;SDS011;9760;50.944;5.304;2023-04-05T14:33:28;12.47;;;5.60;;
19251;SDS011;9760;50.944;5.304;2023-04-05T14:35:53;11.77;;;6.47;;
19251;SDS011;9760;50.944;5.304;2023-04-05T14:38:19;10.80;;;6.60;;
19251;SDS011;9760;50.944;5.304;2023-04-05T14:40:45;17.43;;;6.90;;
19251;SDS011;9760;50.944;5.304;2023-04-05T14:43:11;11.37;;;6.63;;
19251;SDS011;9760;50.944;5.304;2023-04-05T14:45:36;12.80;;;6.67;;
19251;SDS011;9760;50.944;5.304;2023-04-05T14:48:02;13.27;;;6.53;;
19251;SDS011;9760;50.944;5.304;2023-04-05T14:50:28;13.07;;;6.43;;
19251;SDS011;9760;50.944;5.304;2023-04-05T14:52:57;15.63;;;7.50;;
19251;SDS011;9760;50.944;5.304;2023-04-05T14:55:23;11.93;;;6.87;;
19251;SDS011;9760;50.944;5.304;2023-04-05T14:57:49;13.80;;;6.70;;
19251;SDS011;9760;50.944;5.304;2023-04-05T15:00:15;12.97;;;6.60;;
19251;SDS011;9760;50.944;5.304;2023-04-05T15:02:41;13.33;;;7.27;;
19251;SDS011;9760;50.944;5.304;2023-04-05T15:05:08;12.10;;;6.60;;
19251;SDS011;9760;50.944;5.304;2023-04-05T15:07:34;15.57;;;6.63;;
19251;SDS011;9760;50.944;5.304;2023-04-05T15:10:00;13.80;;;6.90;;
19251;SDS011;9760;50.944;5.304;2023-04-05T15:12:25;10.90;;;7.00;;
19251;SDS011;9760;50.944;5.304;2023-04-05T15:14:51;11.67;;;6.47;;
19251;SDS011;9760;50.944;5.304;2023-04-05T15:17:18;16.33;;;7.23;;
19251;SDS011;9760;50.944;5.304;2023-04-05T15:19:44;20.33;;;7.07;;
19251;SDS011;9760;50.944;5.304;2023-04-05T15:22:10;12.57;;;6.53;;
19251;SDS011;9760;50.944;5.304;2023-04-05T15:24:37;17.50;;;7.80;;
19251;SDS011;9760;50.944;5.304;2023-04-05T15:27:04;14.50;;;7.30;;
19251;SDS011;9760;50.944;5.304;2023-04-05T15:29:30;17.50;;;7.13;;
19251;SDS011;9760;50.944;5.304;2023-04-05T15:31:57;14.47;;;6.50;;